sensor_id;sensor_type;location;lat;lon;timestamp;pressure;altitude;pressure_sealevel;temperature;humidity
13594;BME280;6449;47.666;9.160;2022-07-29T09:06:46;97001.53;;;22.35;87.10
13594;BME280;6449;47.666;9.160;2022-07-29T09:32:14;97004.97;;;21.70;84.52
13594;BME280;6449;47.666;9.160;2022-07-29T11:56:52;96915.44;;;25.16;67.48
13594;BME280;6449;47.666;9.160;2022-07-29T12:12:15;96914.81;;;24.94;70.57
13594;BME280;6449;47.666;9.160;2022-07-29T12:17:34;96906.91;;;24.59;64.59
13594;BME280;6449;47.666;9.160;2022-07-29T12:44:00;96891.03;;;24.71;70.26
13594;BME280;6449;47.666;9.160;2022-07-29T12:49:21;96882.19;;;24.90;71.21
13594;BME280;6449;47.666;9.160;2022-07-29T12:54:29;96889.41;;;24.76;71.53
13594;BME280;6449;47.666;9.160;2022-07-29T12:59:27;96893.31;;;24.87;72.66
13594;BME280;6449;47.666;9.160;2022-07-29T13:04:29;96887.94;;;24.87;71.75
13594;BME280;6449;47.666;9.160;2022-07-29T13:09:42;96900.13;;;24.96;73.22
13594;BME280;6449;47.666;9.160;2022-07-29T13:15:18;96902.84;;;24.83;72.53
13594;BME280;6449;47.666;9.160;2022-07-29T13:25:33;96901.16;;;24.69;75.67
13594;BME280;6449;47.666;9.160;2022-07-29T13:36:45;96900.13;;;24.63;73.79
13594;BME280;6449;47.666;9.160;2022-07-29T13:41:40;96900.56;;;24.67;74.22
13594;BME280;6449;47.666;9.160;2022-07-29T13:51:53;96904.69;;;24.89;73.24
13594;BME280;6449;47.666;9.160;2022-07-29T13:57:31;96899.13;;;25.04;71.79
13594;BME280;6449;47.666;9.160;2022-07-29T14:02:40;96898.69;;;25.00;72.71
13594;BME280;6449;47.666;9.160;2022-07-29T14:07:56;96905.28;;;24.98;72.44
13594;BME280;6449;47.666;9.160;2022-07-29T14:12:52;96919.75;;;24.90;69.92
13594;BME280;6449;47.666;9.160;2022-07-29T14:17:47;96923.00;;;24.52;69.95
13594;BME280;6449;47.666;9.160;2022-07-29T14:22:41;96929.91;;;24.27;72.77
13594;BME280;6449;47.666;9.160;2022-07-29T14:27:39;96957.91;;;24.18;76.33
13594;BME280;6449;47.666;9.160;2022-07-29T14:32:33;96976.47;;;23.71;77.31
13594;BME280;6449;47.666;9.160;2022-07-29T14:37:26;96981.59;;;23.45;79.08
13594;BME280;6449;47.666;9.160;2022-07-29T14:42:31;96990.13;;;23.06;80.53
13594;BME280;6449;47.666;9.160;2022-07-29T14:47:26;97005.03;;;22.93;82.18
13594;BME280;6449;47.666;9.160;2022-07-29T14:52:20;97001.19;;;22.81;84.35
13594;BME280;6449;47.666;9.160;2022-07-29T14:57:16;97012.00;;;22.73;85.22
13594;BME280;6449;47.666;9.160;2022-07-29T15:02:12;97028.66;;;22.54;86.82
13594;BME280;6449;47.666;9.160;2022-07-29T15:07:26;97030.91;;;22.20;88.92
13594;BME280;6449;47.666;9.160;2022-07-29T15:12:32;97030.28;;;22.18;87.44
13594;BME280;6449;47.666;9.160;2022-07-29T15:17:49;97025.38;;;21.92;90.95
13594;BME280;6449;47.666;9.160;2022-07-29T15:22:58;97016.00;;;21.96;91.16
13594;BME280;6449;47.666;9.160;2022-07-29T15:28:02;97012.41;;;21.75;92.40
13594;BME280;6449;47.666;9.160;2022-07-29T15:38:17;97015.91;;;21.75;93.93
13594;BME280;6449;47.666;9.160;2022-07-29T15:43:20;97027.66;;;21.51;95.33
13594;BME280;6449;47.666;9.160;2022-07-29T15:53:34;97035.13;;;21.56;96.07
13594;BME280;6449;47.666;9.160;2022-07-29T15:58:39;97041.81;;;21.52;94.85
13594;BME280;6449;47.666;9.160;2022-07-29T16:03:43;97042.25;;;21.40;95.50
13594;BME280;6449;47.666;9.160;2022-07-29T16:08:41;97046.19;;;21.30;93.92
13594;BME280;6449;47.666;9.160;2022-07-29T16:13:35;97043.75;;;21.43;94.74
13594;BME280;6449;47.666;9.160;2022-07-29T16:18:29;97039.97;;;21.37;96.10
13594;BME280;6449;47.666;9.160;2022-07-29T16:23:23;97040.25;;;21.42;94.87
13594;BME280;6449;47.666;9.160;2022-07-29T16:28:53;97023.31;;;21.35;94.82
13594;BME280;6449;47.666;9.160;2022-07-29T16:33:58;97024.13;;;21.36;94.02
13594;BME280;6449;47.666;9.160;2022-07-29T16:38:57;97019.38;;;21.31;94.02
13594;BME280;6449;47.666;9.160;2022-07-29T16:44:03;97028.63;;;21.35;92.63
13594;BME280;6449;47.666;9.160;2022-07-29T16:54:26;97034.19;;;20.88;94.74
13594;BME280;6449;47.666;9.160;2022-07-29T16:59:35;97025.09;;;20.97;93.84
13594;BME280;6449;47.666;9.160;2022-07-29T17:09:56;97037.25;;;21.00;94.09
13594;BME280;6449;47.666;9.160;2022-07-29T17:15:02;97044.78;;;20.96;96.51
13594;BME280;6449;47.666;9.160;2022-07-29T17:20:21;97061.28;;;20.91;95.50
13594;BME280;6449;47.666;9.160;2022-07-29T17:25:44;97064.78;;;20.92;95.62
13594;BME280;6449;47.666;9.160;2022-07-29T17:36:02;97061.47;;;20.90;96.73
13594;BME280;6449;47.666;9.160;2022-07-29T17:41:27;97066.09;;;20.73;96.81
13594;BME280;6449;47.666;9.160;2022-07-29T17:56:51;97088.19;;;20.34;99.69
13594;BME280;6449;47.666;9.160;2022-07-29T18:01:44;97076.88;;;20.40;100.00
13594;BME280;6449;47.666;9.160;2022-07-29T18:06:41;97079.72;;;20.47;99.38
13594;BME280;6449;47.666;9.160;2022-07-29T18:11:40;97083.91;;;20.73;98.93
13594;BME280;6449;47.666;9.160;2022-07-29T18:42:30;97109.72;;;20.72;96.29
13594;BME280;6449;47.666;9.160;2022-07-29T18:47:23;97107.13;;;20.56;98.20
13594;BME280;6449;47.666;9.160;2022-07-29T19:07:46;97134.94;;;20.45;99.61
13594;BME280;6449;47.666;9.160;2022-07-29T19:12:39;97134.53;;;20.25;95.97
13594;BME280;6449;47.666;9.160;2022-07-29T19:17:33;97118.00;;;20.46;95.96
13594;BME280;6449;47.666;9.160;2022-07-29T19:48:20;97144.25;;;19.85;96.57
13594;BME280;6449;47.666;9.160;2022-07-29T19:53:13;97150.25;;;19.79;95.83
13594;BME280;6449;47.666;9.160;2022-07-29T20:08:29;97167.94;;;20.28;92.04
13594;BME280;6449;47.666;9.160;2022-07-29T20:13:23;97179.28;;;20.22;92.63
13594;BME280;6449;47.666;9.160;2022-07-29T20:18:17;97175.50;;;19.92;96.00
13594;BME280;6449;47.666;9.160;2022-07-29T20:23:10;97176.31;;;19.43;96.13
13594;BME280;6449;47.666;9.160;2022-07-29T20:28:05;97179.13;;;19.25;96.46
13594;BME280;6449;47.666;9.160;2022-07-29T20:32:59;97178.66;;;19.46;94.37
13594;BME280;6449;47.666;9.160;2022-07-29T20:37:52;97186.66;;;19.62;95.08
13594;BME280;6449;47.666;9.160;2022-07-29T20:42:47;97193.47;;;19.65;95.36
13594;BME280;6449;47.666;9.160;2022-07-29T20:47:42;97188.97;;;19.57;94.43
13594;BME280;6449;47.666;9.160;2022-07-29T20:57:46;97191.44;;;19.43;96.54
13594;BME280;6449;47.666;9.160;2022-07-29T21:02:39;97187.44;;;18.80;100.00
13594;BME280;6449;47.666;9.160;2022-07-29T21:07:40;97183.75;;;19.15;99.38
13594;BME280;6449;47.666;9.160;2022-07-29T21:43:30;97192.22;;;18.42;100.00
13594;BME280;6449;47.666;9.160;2022-07-29T21:48:26;97189.47;;;18.52;100.00
13594;BME280;6449;47.666;9.160;2022-07-29T21:53:23;97185.00;;;18.87;99.00
13594;BME280;6449;47.666;9.160;2022-07-29T22:03:29;97188.81;;;18.58;98.18
13594;BME280;6449;47.666;9.160;2022-07-29T22:08:23;97179.69;;;18.26;99.25
13594;BME280;6449;47.666;9.160;2022-07-29T22:23:39;97176.28;;;18.08;100.00
13594;BME280;6449;47.666;9.160;2022-07-29T22:28:32;97172.44;;;18.28;100.00
13594;BME280;6449;47.666;9.160;2022-07-29T22:33:26;97177.09;;;18.35;100.00
13594;BME280;6449;47.666;9.160;2022-07-29T22:38:20;97174.34;;;18.44;100.00
13594;BME280;6449;47.666;9.160;2022-07-29T22:43:14;97176.81;;;18.38;100.00
13594;BME280;6449;47.666;9.160;2022-07-29T22:48:08;97176.69;;;18.21;100.00
13594;BME280;6449;47.666;9.160;2022-07-29T22:53:02;97172.97;;;18.06;100.00
13594;BME280;6449;47.666;9.160;2022-07-29T22:57:55;97172.66;;;18.09;100.00
13594;BME280;6449;47.666;9.160;2022-07-29T23:08:01;97174.63;;;18.07;100.00
13594;BME280;6449;47.666;9.160;2022-07-29T23:12:54;97175.97;;;17.85;100.00
13594;BME280;6449;47.666;9.160;2022-07-29T23:23:00;97161.88;;;17.85;100.00
13594;BME280;6449;47.666;9.160;2022-07-29T23:27:53;97169.72;;;17.94;100.00
13594;BME280;6449;47.666;9.160;2022-07-29T23:32:47;97177.28;;;18.07;100.00
13594;BME280;6449;47.666;9.160;2022-07-29T23:42:53;97159.63;;;18.24;100.00
13594;BME280;6449;47.666;9.160;2022-07-29T23:47:46;97154.13;;;18.17;100.00
13594;BME280;6449;47.666;9.160;2022-07-29T23:52:40;97148.91;;;18.33;100.00
13594;BME280;6449;47.666;9.160;2022-07-29T23:57:33;97147.56;;;18.03;100.00
